sensor_id;sensor_type;location;lat;lon;timestamp;pressure;altitude;pressure_sealevel;temperature;humidity
31088;BME280;17745;55.914;37.554;2023-05-23T00:02:33;99564.31;;;14.89;63.96
31088;BME280;17745;55.914;37.554;2023-05-23T00:05:06;99560.31;;;14.92;63.93
31088;BME280;17745;55.914;37.554;2023-05-23T00:07:36;99563.50;;;14.94;63.90
31088;BME280;17745;55.914;37.554;2023-05-23T00:10:05;99559.22;;;14.98;63.86
31088;BME280;17745;55.914;37.554;2023-05-23T00:12:34;99558.16;;;14.99;63.82
31088;BME280;17745;55.914;37.554;2023-05-23T00:15:05;99552.56;;;15.00;63.78
31088;BME280;17745;55.914;37.554;2023-05-23T00:17:35;99558.69;;;15.01;63.77
31088;BME280;17745;55.914;37.554;2023-05-23T00:20:08;99558.69;;;15.01;63.75
31088;BME280;17745;55.914;37.554;2023-05-23T00:22:41;99552.81;;;14.99;63.81
31088;BME280;17745;55.914;37.554;2023-05-23T00:25:09;99558.44;;;14.97;63.81
31088;BME280;17745;55.914;37.554;2023-05-23T00:27:37;99561.09;;;14.97;63.80
31088;BME280;17745;55.914;37.554;2023-05-23T00:30:07;99556.84;;;14.96;63.79
31088;BME280;17745;55.914;37.554;2023-05-23T00:32:36;99554.97;;;14.97;63.79
31088;BME280;17745;55.914;37.554;2023-05-23T00:35:05;99560.03;;;14.98;63.77
31088;BME280;17745;55.914;37.554;2023-05-23T00:37:34;99559.47;;;15.01;63.72
31088;BME280;17745;55.914;37.554;2023-05-23T00:40:08;99561.06;;;15.03;63.65
31088;BME280;17745;55.914;37.554;2023-05-23T00:42:40;99556.78;;;15.07;63.62
31088;BME280;17745;55.914;37.554;2023-05-23T00:45:11;99556.78;;;15.07;63.54
31088;BME280;17745;55.914;37.554;2023-05-23T00:47:41;99545.03;;;15.08;63.50
31088;BME280;17745;55.914;37.554;2023-05-23T00:50:16;99552.25;;;15.07;63.46
31088;BME280;17745;55.914;37.554;2023-05-23T00:52:50;99548.25;;;15.05;63.41
31088;BME280;17745;55.914;37.554;2023-05-23T00:55:27;99559.22;;;15.03;63.40
31088;BME280;17745;55.914;37.554;2023-05-23T00:58:05;99555.75;;;15.03;63.41
31088;BME280;17745;55.914;37.554;2023-05-23T01:00:38;99555.22;;;15.00;63.41
31088;BME280;17745;55.914;37.554;2023-05-23T01:03:10;99559.50;;;14.96;63.38
31088;BME280;17745;55.914;37.554;2023-05-23T01:05:56;99552.06;;;14.93;63.40
31088;BME280;17745;55.914;37.554;2023-05-23T01:08:33;99551.78;;;14.90;63.39
31088;BME280;17745;55.914;37.554;2023-05-23T01:11:13;99554.19;;;14.86;63.42
31088;BME280;17745;55.914;37.554;2023-05-23T01:13:58;99547.00;;;14.86;63.49
31088;BME280;17745;55.914;37.554;2023-05-23T01:16:34;99547.00;;;14.86;63.43
31088;BME280;17745;55.914;37.554;2023-05-23T01:19:25;99542.19;;;14.89;63.42
31088;BME280;17745;55.914;37.554;2023-05-23T01:22:09;99540.31;;;14.89;63.37
31088;BME280;17745;55.914;37.554;2023-05-23T01:24:49;99543.53;;;14.91;63.32
31088;BME280;17745;55.914;37.554;2023-05-23T01:27:40;99531.50;;;14.94;63.32
31088;BME280;17745;55.914;37.554;2023-05-23T01:30:15;99536.28;;;14.97;63.29
31088;BME280;17745;55.914;37.554;2023-05-23T01:32:49;99531.22;;;15.00;63.19
31088;BME280;17745;55.914;37.554;2023-05-23T01:35:28;99536.00;;;15.04;63.15
31088;BME280;17745;55.914;37.554;2023-05-23T01:38:00;99535.44;;;15.07;63.10
31088;BME280;17745;55.914;37.554;2023-05-23T01:40:41;99528.78;;;15.09;63.01
31088;BME280;17745;55.914;37.554;2023-05-23T01:43:34;99528.22;;;15.12;62.94
31088;BME280;17745;55.914;37.554;2023-05-23T01:46:09;99535.13;;;15.19;62.89
31088;BME280;17745;55.914;37.554;2023-05-23T01:48:44;99534.81;;;15.25;62.80
31088;BME280;17745;55.914;37.554;2023-05-23T01:51:22;99530.25;;;15.31;62.69
31088;BME280;17745;55.914;37.554;2023-05-23T01:53:54;99532.12;;;15.36;62.61
31088;BME280;17745;55.914;37.554;2023-05-23T03:42:23;99506.84;;;17.57;56.51
31088;BME280;17745;55.914;37.554;2023-05-23T03:45:01;99504.03;;;17.82;56.08
31088;BME280;17745;55.914;37.554;2023-05-23T03:47:32;99522.25;;;17.99;55.94
31088;BME280;17745;55.914;37.554;2023-05-23T03:50:09;99518.63;;;18.09;55.66
31088;BME280;17745;55.914;37.554;2023-05-23T03:52:58;99508.03;;;18.18;55.38
31088;BME280;17745;55.914;37.554;2023-05-23T03:55:34;99501.78;;;18.36;54.90
31088;BME280;17745;55.914;37.554;2023-05-23T03:58:16;99500.78;;;18.46;54.89
31088;BME280;17745;55.914;37.554;2023-05-23T04:00:51;99504.28;;;18.61;54.30
31088;BME280;17745;55.914;37.554;2023-05-23T04:03:51;99494.53;;;18.65;54.43
31088;BME280;17745;55.914;37.554;2023-05-23T04:06:47;99498.97;;;18.83;54.03
31088;BME280;17745;55.914;37.554;2023-05-23T04:09:58;99505.03;;;19.03;53.49
31088;BME280;17745;55.914;37.554;2023-05-23T04:13:46;99497.50;;;19.28;52.89
31088;BME280;17745;55.914;37.554;2023-05-23T04:16:52;99498.94;;;19.48;52.50
31088;BME280;17745;55.914;37.554;2023-05-23T04:27:59;99494.72;;;19.79;51.69
31088;BME280;17745;55.914;37.554;2023-05-23T04:31:45;99492.94;;;19.74;51.09
31088;BME280;17745;55.914;37.554;2023-05-23T04:35:04;99495.72;;;19.60;51.04
31088;BME280;17745;55.914;37.554;2023-05-23T04:38:45;99496.25;;;19.48;50.96
31088;BME280;17745;55.914;37.554;2023-05-23T04:53:46;99498.16;;;19.93;50.08
31088;BME280;17745;55.914;37.554;2023-05-23T04:56:50;99499.41;;;20.27;49.67
31088;BME280;17745;55.914;37.554;2023-05-23T04:59:33;99492.25;;;20.54;49.41
31088;BME280;17745;55.914;37.554;2023-05-23T05:02:15;99508.63;;;20.84;48.89
31088;BME280;17745;55.914;37.554;2023-05-23T05:05:05;99503.44;;;21.06;48.63
31088;BME280;17745;55.914;37.554;2023-05-23T05:34:01;99537.34;;;21.51;46.22
31088;BME280;17745;55.914;37.554;2023-05-23T05:37:06;99531.62;;;21.61;45.71
31088;BME280;17745;55.914;37.554;2023-05-23T05:39:47;99525.28;;;21.83;45.70
31088;BME280;17745;55.914;37.554;2023-05-23T05:42:55;99534.44;;;22.00;45.40
31088;BME280;17745;55.914;37.554;2023-05-23T05:46:07;99531.06;;;22.12;44.90
31088;BME280;17745;55.914;37.554;2023-05-23T05:49:34;99525.81;;;22.24;44.66
31088;BME280;17745;55.914;37.554;2023-05-23T05:52:33;99525.91;;;22.46;44.22
31088;BME280;17745;55.914;37.554;2023-05-23T05:55:24;99514.41;;;22.66;44.31
31088;BME280;17745;55.914;37.554;2023-05-23T06:01:50;99520.81;;;23.04;43.17
31088;BME280;17745;55.914;37.554;2023-05-23T06:05:10;99508.69;;;23.10;42.87
31088;BME280;17745;55.914;37.554;2023-05-23T06:08:26;99509.62;;;23.14;42.89
31088;BME280;17745;55.914;37.554;2023-05-23T06:11:01;99506.81;;;23.11;42.86
31088;BME280;17745;55.914;37.554;2023-05-23T06:13:41;99510.34;;;23.03;43.05
31088;BME280;17745;55.914;37.554;2023-05-23T06:16:17;99506.56;;;22.95;42.78
31088;BME280;17745;55.914;37.554;2023-05-23T06:18:53;99509.81;;;22.88;42.95
31088;BME280;17745;55.914;37.554;2023-05-23T06:21:30;99500.53;;;22.98;42.86
31088;BME280;17745;55.914;37.554;2023-05-23T06:24:08;99506.66;;;23.07;42.66
31088;BME280;17745;55.914;37.554;2023-05-23T06:27:11;99498.81;;;23.14;42.73
31088;BME280;17745;55.914;37.554;2023-05-23T06:29:44;99500.50;;;23.28;42.44
31088;BME280;17745;55.914;37.554;2023-05-23T06:32:50;99486.34;;;23.22;42.41
31088;BME280;17745;55.914;37.554;2023-05-23T06:35:26;99490.13;;;23.30;42.15
31088;BME280;17745;55.914;37.554;2023-05-23T06:38:32;99486.09;;;23.36;42.19
31088;BME280;17745;55.914;37.554;2023-05-23T06:41:06;99483.28;;;23.66;41.53
31088;BME280;17745;55.914;37.554;2023-05-23T06:43:43;99482.44;;;23.87;41.67
31088;BME280;17745;55.914;37.554;2023-05-23T06:46:59;99480.69;;;24.29;41.35
31088;BME280;17745;55.914;37.554;2023-05-23T06:49:30;99482.25;;;24.79;40.78
31088;BME280;17745;55.914;37.554;2023-05-23T06:55:42;99473.09;;;25.25;39.72
31088;BME280;17745;55.914;37.554;2023-05-23T06:58:41;99478.53;;;25.53;39.29
31088;BME280;17745;55.914;37.554;2023-05-23T07:01:37;99465.38;;;25.84;38.84
31088;BME280;17745;55.914;37.554;2023-05-23T07:04:18;99467.28;;;26.00;38.76
31088;BME280;17745;55.914;37.554;2023-05-23T07:10:33;99458.28;;;26.28;38.19
31088;BME280;17745;55.914;37.554;2023-05-23T07:13:30;99450.81;;;26.40;38.38
31088;BME280;17745;55.914;37.554;2023-05-23T07:16:42;99439.09;;;26.72;37.67
31088;BME280;17745;55.914;37.554;2023-05-23T07:19:57;99443.75;;;26.91;37.33
31088;BME280;17745;55.914;37.554;2023-05-23T07:23:11;99431.34;;;26.74;37.66
31088;BME280;17745;55.914;37.554;2023-05-23T07:26:49;99424.91;;;26.63;37.40
31088;BME280;17745;55.914;37.554;2023-05-23T07:43:50;99433.78;;;27.38;35.84
31088;BME280;17745;55.914;37.554;2023-05-23T07:46:48;99435.75;;;27.61;35.21
31088;BME280;17745;55.914;37.554;2023-05-23T07:50:09;99437.31;;;27.62;35.48
31088;BME280;17745;55.914;37.554;2023-05-23T07:53:50;99438.78;;;27.56;34.81
31088;BME280;17745;55.914;37.554;2023-05-23T07:57:14;99437.69;;;27.61;34.83
31088;BME280;17745;55.914;37.554;2023-05-23T08:11:34;99446.13;;;28.02;34.52
31088;BME280;17745;55.914;37.554;2023-05-23T08:18:07;99453.34;;;27.67;34.27
31088;BME280;17745;55.914;37.554;2023-05-23T08:21:29;99449.09;;;27.47;34.17
31088;BME280;17745;55.914;37.554;2023-05-23T08:24:59;99446.94;;;27.36;34.57
31088;BME280;17745;55.914;37.554;2023-05-23T08:38:20;99443.81;;;27.34;34.98
31088;BME280;17745;55.914;37.554;2023-05-23T08:51:35;99443.72;;;27.31;35.43
31088;BME280;17745;55.914;37.554;2023-05-23T09:01:49;99431.78;;;28.29;34.70
31088;BME280;17745;55.914;37.554;2023-05-23T09:04:38;99431.78;;;28.29;34.70
31088;BME280;17745;55.914;37.554;2023-05-23T09:07:42;99430.47;;;27.95;35.28
31088;BME280;17745;55.914;37.554;2023-05-23T09:10:35;99431.47;;;28.10;35.07
31088;BME280;17745;55.914;37.554;2023-05-23T09:13:58;99433.00;;;28.08;34.87
31088;BME280;17745;55.914;37.554;2023-05-23T09:16:32;99428.72;;;28.07;34.83
31088;BME280;17745;55.914;37.554;2023-05-23T09:19:18;99434.72;;;28.16;34.56
31088;BME280;17745;55.914;37.554;2023-05-23T09:21:59;99431.53;;;28.14;34.26
31088;BME280;17745;55.914;37.554;2023-05-23T09:25:11;99431.44;;;28.07;34.48
31088;BME280;17745;55.914;37.554;2023-05-23T09:28:04;99437.56;;;28.00;34.46
31088;BME280;17745;55.914;37.554;2023-05-23T09:30:39;99447.28;;;27.78;34.48
31088;BME280;17745;55.914;37.554;2023-05-23T09:33:39;99445.00;;;27.80;34.40
31088;BME280;17745;55.914;37.554;2023-05-23T09:36:20;99446.38;;;27.47;34.58
31088;BME280;17745;55.914;37.554;2023-05-23T09:38:55;99456.25;;;27.35;35.24
31088;BME280;17745;55.914;37.554;2023-05-23T09:41:42;99459.63;;;27.29;35.73
31088;BME280;17745;55.914;37.554;2023-05-23T09:44:22;99461.13;;;27.26;36.09
31088;BME280;17745;55.914;37.554;2023-05-23T11:08:07;99485.09;;;24.21;43.78
31088;BME280;17745;55.914;37.554;2023-05-23T11:11:21;99479.44;;;24.26;43.86
31088;BME280;17745;55.914;37.554;2023-05-23T11:14:56;99488.25;;;24.10;44.37
31088;BME280;17745;55.914;37.554;2023-05-23T11:18:43;99479.88;;;23.91;44.64
31088;BME280;17745;55.914;37.554;2023-05-23T11:21:58;99480.53;;;23.41;45.80
31088;BME280;17745;55.914;37.554;2023-05-23T11:25:07;99481.69;;;23.10;46.17
31088;BME280;17745;55.914;37.554;2023-05-23T11:27:46;99478.50;;;22.96;47.00
31088;BME280;17745;55.914;37.554;2023-05-23T11:30:20;99476.47;;;22.84;47.04
31088;BME280;17745;55.914;37.554;2023-05-23T11:32:54;99485.03;;;22.65;47.48
31088;BME280;17745;55.914;37.554;2023-05-23T11:36:02;99487.62;;;22.52;47.89
31088;BME280;17745;55.914;37.554;2023-05-23T11:38:46;99481.78;;;22.41;48.82
31088;BME280;17745;55.914;37.554;2023-05-23T12:17:11;99486.38;;;22.02;51.89
31088;BME280;17745;55.914;37.554;2023-05-23T12:24:29;99483.66;;;22.59;51.48
31088;BME280;17745;55.914;37.554;2023-05-23T12:28:16;99479.12;;;22.93;51.24
31088;BME280;17745;55.914;37.554;2023-05-23T12:31:53;99474.09;;;23.46;50.58
31088;BME280;17745;55.914;37.554;2023-05-23T13:07:15;99433.78;;;26.24;45.84
31088;BME280;17745;55.914;37.554;2023-05-23T13:10:02;99430.97;;;26.92;44.63
31088;BME280;17745;55.914;37.554;2023-05-23T13:13:17;99426.41;;;27.39;43.85
31088;BME280;17745;55.914;37.554;2023-05-23T13:16:38;99415.16;;;27.40;43.11
31088;BME280;17745;55.914;37.554;2023-05-23T13:20:02;99427.66;;;27.22;43.24
31088;BME280;17745;55.914;37.554;2023-05-23T17:12:21;99324.88;;;20.57;59.01
31088;BME280;17745;55.914;37.554;2023-05-23T19:20:46;99254.78;;;19.52;62.08
31088;BME280;17745;55.914;37.554;2023-05-23T19:23:39;99258.88;;;19.49;62.05
31088;BME280;17745;55.914;37.554;2023-05-23T19:26:15;99261.31;;;19.28;62.60
31088;BME280;17745;55.914;37.554;2023-05-23T20:06:11;99220.16;;;18.10;67.65
31088;BME280;17745;55.914;37.554;2023-05-23T20:16:24;99218.16;;;18.15;67.29
31088;BME280;17745;55.914;37.554;2023-05-23T20:19:00;99217.91;;;18.03;67.58
31088;BME280;17745;55.914;37.554;2023-05-23T20:44:52;99218.84;;;18.67;65.30
31088;BME280;17745;55.914;37.554;2023-05-23T20:51:24;99216.75;;;18.64;65.33
31088;BME280;17745;55.914;37.554;2023-05-23T21:13:11;99211.19;;;18.51;65.33
31088;BME280;17745;55.914;37.554;2023-05-23T21:16:04;99215.87;;;18.46;65.53
31088;BME280;17745;55.914;37.554;2023-05-23T21:18:38;99209.69;;;18.45;65.52
31088;BME280;17745;55.914;37.554;2023-05-23T21:28:29;99201.19;;;18.43;65.49
31088;BME280;17745;55.914;37.554;2023-05-23T21:31:53;99220.62;;;18.49;65.41
31088;BME280;17745;55.914;37.554;2023-05-23T21:35:26;99227.81;;;18.62;65.23
31088;BME280;17745;55.914;37.554;2023-05-23T21:39:06;99210.19;;;18.70;64.95
31088;BME280;17745;55.914;37.554;2023-05-23T21:41:52;99210.19;;;18.70;64.91
31088;BME280;17745;55.914;37.554;2023-05-23T21:55:49;99196.09;;;18.87;64.46
31088;BME280;17745;55.914;37.554;2023-05-23T21:58:33;99201.00;;;18.94;64.33
31088;BME280;17745;55.914;37.554;2023-05-23T22:01:11;99195.31;;;18.95;64.29
31088;BME280;17745;55.914;37.554;2023-05-23T22:04:03;99193.94;;;18.98;64.27
31088;BME280;17745;55.914;37.554;2023-05-23T22:06:38;99185.87;;;18.98;64.21
31088;BME280;17745;55.914;37.554;2023-05-23T22:09:39;99186.19;;;18.96;64.21
31088;BME280;17745;55.914;37.554;2023-05-23T22:12:26;99182.94;;;18.99;64.17
31088;BME280;17745;55.914;37.554;2023-05-23T22:15:05;99186.72;;;18.98;64.11
31088;BME280;17745;55.914;37.554;2023-05-23T22:18:26;99180.50;;;18.98;64.12
31088;BME280;17745;55.914;37.554;2023-05-23T22:21:39;99181.03;;;19.00;64.01
31088;BME280;17745;55.914;37.554;2023-05-23T22:25:01;99180.03;;;18.96;64.01
31088;BME280;17745;55.914;37.554;2023-05-23T22:41:55;99186.03;;;18.93;63.89
31088;BME280;17745;55.914;37.554;2023-05-23T22:44:36;99183.63;;;18.91;63.87
31088;BME280;17745;55.914;37.554;2023-05-23T22:47:17;99186.13;;;18.87;63.90
31088;BME280;17745;55.914;37.554;2023-05-23T22:50:11;99175.72;;;18.86;63.95
31088;BME280;17745;55.914;37.554;2023-05-23T22:53:07;99177.59;;;18.85;63.97
31088;BME280;17745;55.914;37.554;2023-05-23T22:56:01;99174.44;;;18.83;63.97
31088;BME280;17745;55.914;37.554;2023-05-23T22:58:36;99174.75;;;18.82;63.98
31088;BME280;17745;55.914;37.554;2023-05-23T23:01:12;99173.34;;;18.84;64.01
31088;BME280;17745;55.914;37.554;2023-05-23T23:03:42;99178.09;;;18.87;63.94
31088;BME280;17745;55.914;37.554;2023-05-23T23:06:13;99186.03;;;18.93;63.80
31088;BME280;17745;55.914;37.554;2023-05-23T23:08:42;99177.34;;;18.96;63.75
31088;BME280;17745;55.914;37.554;2023-05-23T23:11:14;99180.50;;;18.98;63.71
31088;BME280;17745;55.914;37.554;2023-05-23T23:13:45;99175.34;;;19.02;63.59
31088;BME280;17745;55.914;37.554;2023-05-23T23:16:15;99179.78;;;19.06;63.46
31088;BME280;17745;55.914;37.554;2023-05-23T23:18:45;99181.34;;;19.07;63.42
31088;BME280;17745;55.914;37.554;2023-05-23T23:21:18;99176.31;;;19.06;63.43
31088;BME280;17745;55.914;37.554;2023-05-23T23:23:51;99177.59;;;19.08;63.40
31088;BME280;17745;55.914;37.554;2023-05-23T23:26:32;99171.91;;;19.10;63.29
31088;BME280;17745;55.914;37.554;2023-05-23T23:29:09;99180.63;;;19.16;63.17
31088;BME280;17745;55.914;37.554;2023-05-23T23:31:41;99183.78;;;19.18;63.02
31088;BME280;17745;55.914;37.554;2023-05-23T23:34:11;99175.72;;;19.18;62.95
31088;BME280;17745;55.914;37.554;2023-05-23T23:36:44;99178.13;;;19.19;62.90
31088;BME280;17745;55.914;37.554;2023-05-23T23:39:16;99167.84;;;19.21;62.82
31088;BME280;17745;55.914;37.554;2023-05-23T23:41:55;99179.84;;;19.24;62.70
31088;BME280;17745;55.914;37.554;2023-05-23T23:45:08;99174.94;;;19.26;62.59
31088;BME280;17745;55.914;37.554;2023-05-23T23:48:03;99167.88;;;19.30;62.40
31088;BME280;17745;55.914;37.554;2023-05-23T23:51:05;99173.84;;;19.27;62.37
31088;BME280;17745;55.914;37.554;2023-05-23T23:53:57;99165.50;;;19.28;62.22
31088;BME280;17745;55.914;37.554;2023-05-23T23:57:10;99178.63;;;19.30;62.09
